Time;durP1;ratioP1;P1;durP2;ratioP2;P2;SDS_P1;SDS_P2;PMS_P1;PMS_P2;Temp;Humidity;BMP_temperature;BMP_pressure;BME280_temperature;BME280_humidity;BME280_pressure;Samples;Min_cycle;Max_cycle;Signal;HPM_P1;HPM_P2
2023/10/17 00:00:32;;;;;;;;;;;;;;;21.06;29.94;98585.81;4976406;28;1509;-78
2023/10/17 00:02:59;;;;;;;;;;;;;;;20.96;29.77;98578.28;4970176;28;2023;-78
2023/10/17 00:05:25;;;;;;;;;;;;;;;20.97;29.70;98577.03;4944162;28;1573;-78
2023/10/17 00:07:51;;;;;;;;;;;;;;;20.88;29.74;98579.59;4959753;28;1724;-79
2023/10/17 00:10:19;;;;;;;;;;;;;;;20.64;30.34;98565.41;4944956;29;1616;-78
2023/10/17 00:12:50;;;;;;;;;;;;;;;20.37;30.57;98561.69;4963501;28;1533;-78
2023/10/17 00:15:28;;;;;;;;;;;;;;;20.63;29.98;98572.28;4980267;28;1682;-78
2023/10/17 00:18:03;;;;;;;;;;;;;;;20.88;29.57;98573.94;4997643;28;1539;-78
2023/10/17 00:20:37;;;;;;;;;;;;;;;20.83;29.91;98572.41;4996379;28;1578;-78
2023/10/17 00:23:06;;;;;;;;;;;;;;;20.69;30.10;98561.28;5020333;28;1909;-79
2023/10/17 00:25:32;;;;;;;;;;;;;;;20.63;29.83;98558.16;4999818;28;1515;-79
2023/10/17 00:27:58;;;;;;;;;;;;;;;20.66;29.69;98567.78;4978253;28;1628;-79
2023/10/17 00:30:29;;;;;;;;;;;;;;;21.03;29.19;98567.63;4973472;28;1398;-78
2023/10/17 00:32:55;;;;;;;;;;;;;;;20.94;29.17;98572.25;5010127;28;1299;-79
2023/10/17 00:35:25;;;;;;;;;;;;;;;21.01;29.21;98555.97;4995774;28;1471;-79
2023/10/17 00:37:57;;;;;;;;;;;;;;;20.92;28.99;98566.22;4996339;28;1544;-78
2023/10/17 00:40:37;;;;;;;;;;;;;;;20.92;29.14;98554.88;5010696;28;1406;-79
2023/10/17 00:43:11;;;;;;;;;;;;;;;20.64;29.18;98542.78;5008495;28;1983;-78
2023/10/17 00:45:37;;;;;;;;;;;;;;;20.76;29.05;98549.88;5014239;28;1503;-78
2023/10/17 00:48:08;;;;;;;;;;;;;;;20.53;29.21;98553.44;4999837;28;1480;-78
2023/10/17 00:50:37;;;;;;;;;;;;;;;21.31;28.54;98546.63;5046403;28;1486;-79
2023/10/17 00:53:03;;;;;;;;;;;;;;;21.63;28.71;98552.94;5005674;28;1472;-78
2023/10/17 00:55:29;;;;;;;;;;;;;;;21.51;28.83;98540.22;5019497;28;1602;-79
2023/10/17 00:57:54;;;;;;;;;;;;;;;21.63;28.78;98538.78;4987597;28;1556;-78
2023/10/17 01:00:35;;;;;;;;;;;;;;;21.18;29.48;98548.41;4982794;28;1620;-78
2023/10/17 01:03:08;;;;;;;;;;;;;;;20.83;29.68;98554.63;5015116;28;1984;-79
2023/10/17 01:05:46;;;;;;;;;;;;;;;20.76;29.75;98553.50;5014867;28;1522;-79
2023/10/17 01:08:12;;;;;;;;;;;;;;;20.84;29.51;98551.38;5029672;28;1530;-78
2023/10/17 01:10:38;;;;;;;;;;;;;;;21.10;29.39;98549.78;5014636;28;1539;-79
2023/10/17 01:13:03;;;;;;;;;;;;;;;20.80;29.78;98557.09;4980246;28;1611;-78
2023/10/17 01:15:32;;;;;;;;;;;;;;;20.67;29.84;98558.88;4988307;28;1532;-79
2023/10/17 01:18:04;;;;;;;;;;;;;;;20.86;29.42;98556.59;4972821;28;1445;-78
2023/10/17 01:20:29;;;;;;;;;;;;;;;20.89;29.58;98561.41;4971971;28;1525;-78
2023/10/17 01:23:00;;;;;;;;;;;;;;;20.79;29.49;98552.66;4997815;28;1910;-79
2023/10/17 01:25:29;;;;;;;;;;;;;;;20.97;29.41;98560.06;4964164;28;1537;-78
2023/10/17 01:27:57;;;;;;;;;;;;;;;20.95;29.32;98569.00;4940959;28;1538;-78
2023/10/17 01:30:22;;;;;;;;;;;;;;;20.58;29.82;98560.66;4943159;28;1601;-78
2023/10/17 01:32:48;;;;;;;;;;;;;;;20.72;29.17;98558.41;4959046;28;1624;-79
2023/10/17 01:35:19;;;;;;;;;;;;;;;20.64;29.51;98564.59;4959583;28;1600;-79
2023/10/17 01:37:47;;;;;;;;;;;;;;;20.45;29.70;98560.38;4956939;28;1728;-79
2023/10/17 01:40:28;;;;;;;;;;;;;;;20.66;29.53;98562.94;4958557;28;1489;-79
2023/10/17 01:42:54;;;;;;;;;;;;;;;20.71;29.42;98570.16;4957883;28;2099;-79
2023/10/17 01:45:25;;;;;;;;;;;;;;;20.78;28.90;98570.06;4936179;28;1483;-78
2023/10/17 01:47:54;;;;;;;;;;;;;;;20.61;29.32;98560.56;4943668;29;1605;-79
2023/10/17 01:50:20;;;;;;;;;;;;;;;20.70;29.17;98560.88;4940495;29;1546;-78
2023/10/17 01:52:46;;;;;;;;;;;;;;;20.73;29.41;98562.84;4924763;29;1614;-79
2023/10/17 01:55:14;;;;;;;;;;;;;;;21.40;28.55;98565.06;4924265;29;1609;-79
2023/10/17 01:57:46;;;;;;;;;;;;;;;21.57;28.56;98563.97;4956742;28;1442;-78
2023/10/17 02:02:57;;;;;;;;;;;;;;;21.04;28.87;98559.97;4970192;28;1903;-78
2023/10/17 02:05:23;;;;;;;;;;;;;;;20.93;29.33;98567.81;4976095;28;1602;-79
2023/10/17 02:07:49;;;;;;;;;;;;;;;20.89;29.32;98570.69;4974295;28;1521;-79
2023/10/17 02:10:28;;;;;;;;;;;;;;;21.13;29.13;98563.03;4956657;28;1558;-79
2023/10/17 02:12:54;;;;;;;;;;;;;;;20.67;29.57;98564.53;4956356;28;1486;-78
2023/10/17 02:15:19;;;;;;;;;;;;;;;20.92;29.20;98554.88;4974381;28;1600;-78
2023/10/17 02:17:46;;;;;;;;;;;;;;;20.85;29.23;98558.63;4972837;28;1686;-79
2023/10/17 02:20:21;;;;;;;;;;;;;;;20.66;29.64;98557.28;4973037;28;1536;-79
2023/10/17 02:22:53;;;;;;;;;;;;;;;20.68;29.53;98551.22;4959670;28;1979;-78
2023/10/17 02:25:21;;;;;;;;;;;;;;;20.80;29.44;98557.09;4991961;28;1457;-78
2023/10/17 02:27:50;;;;;;;;;;;;;;;20.70;29.40;98552.38;4972828;28;1485;-78
2023/10/17 02:30:16;;;;;;;;;;;;;;;20.95;28.84;98556.88;4972320;28;1532;-78
2023/10/17 02:32:52;;;;;;;;;;;;;;;20.80;29.16;98562.75;4972022;28;1529;-78
2023/10/17 02:38:15;;;;;;;;;;;;;;;20.63;29.46;98560.19;4913182;29;1583;-79
2023/10/17 02:40:40;;;;;;;;;;;;;;;20.87;28.94;98566.69;4902344;29;1445;-79
2023/10/17 02:43:06;;;;;;;;;;;;;;;20.97;29.15;98548.75;4917687;29;1906;-78
2023/10/17 02:45:32;;;;;;;;;;;;;;;20.66;29.40;98557.28;4898640;29;1623;-78
2023/10/17 02:48:06;;;;;;;;;;;;;;;20.77;29.17;98557.91;4895978;29;1643;-79
2023/10/17 02:52:57;;;;;;;;;;;;;;;20.80;29.18;98557.09;4880583;29;1512;-79
2023/10/17 02:55:27;;;;;;;;;;;;;;;20.85;29.17;98563.50;4884517;29;1575;-78
2023/10/17 02:57:54;;;;;;;;;;;;;;;20.86;28.75;98559.44;4907407;29;1536;-79
2023/10/17 03:00:22;;;;;;;;;;;;;;;20.67;29.26;98552.41;4902269;29;1539;-79
2023/10/17 03:02:55;;;;;;;;;;;;;;;20.58;29.36;98555.00;4886904;29;1915;-78
2023/10/17 03:05:21;;;;;;;;;;;;;;;20.54;29.46;98555.03;4901636;29;1609;-78
2023/10/17 03:07:49;;;;;;;;;;;;;;;21.50;28.49;98555.59;4902130;29;1524;-78
2023/10/17 03:13:23;;;;;;;;;;;;;;;21.31;28.82;98548.66;4924544;29;1735;-79
2023/10/17 03:15:49;;;;;;;;;;;;;;;20.88;29.74;98546.47;4942077;28;1664;-79
2023/10/17 03:18:16;;;;;;;;;;;;;;;20.95;29.63;98546.34;4955293;29;1489;-78
2023/10/17 03:20:50;;;;;;;;;;;;;;;20.88;29.88;98559.78;4936794;29;1643;-79
2023/10/17 03:23:28;;;;;;;;;;;;;;;20.99;29.52;98551.97;4933004;28;1981;-79
2023/10/17 03:26:02;;;;;;;;;;;;;;;20.88;29.69;98560.63;4959877;28;1485;-78
2023/10/17 03:28:29;;;;;;;;;;;;;;;21.02;29.87;98556.75;4941845;28;1514;-78
2023/10/17 03:30:55;;;;;;;;;;;;;;;20.92;29.88;98552.06;4958489;28;1595;-79
2023/10/17 03:33:27;;;;;;;;;;;;;;;20.95;30.08;98556.88;4939400;28;1438;-78
2023/10/17 03:38:26;;;;;;;;;;;;;;;20.43;30.81;98545.88;4977201;28;1591;-79
2023/10/17 03:40:53;;;;;;;;;;;;;;;20.92;30.00;98557.72;4977417;28;1440;-79
2023/10/17 03:43:21;;;;;;;;;;;;;;;20.85;29.95;98563.50;4984563;28;1975;-78
2023/10/17 03:45:56;;;;;;;;;;;;;;;20.67;30.13;98553.22;4949908;28;1984;-79
2023/10/17 03:48:23;;;;;;;;;;;;;;;20.94;29.65;98555.28;4962206;28;1168;-78
2023/10/17 03:50:58;;;;;;;;;;;;;;;20.91;29.35;98567.44;4997747;28;1029;-79
2023/10/17 03:53:30;;;;;;;;;;;;;;;20.69;29.85;98556.44;4997673;28;898;-78
2023/10/17 03:56:00;;;;;;;;;;;;;;;20.65;29.52;98561.34;4981769;28;1100;-78
2023/10/17 03:58:33;;;;;;;;;;;;;;;20.52;29.98;98563.13;5001270;28;1135;-78
2023/10/17 04:01:10;;;;;;;;;;;;;;;20.57;29.66;98554.16;4986305;28;1089;-78
2023/10/17 04:03:36;;;;;;;;;;;;;;;20.58;29.61;98560.66;5001142;28;1981;-78
2023/10/17 04:11:36;;;;;;;;;;;;;;;21.44;28.84;98560.16;4964015;28;1086;-78
2023/10/17 04:14:02;;;;;;;;;;;;;;;21.13;28.79;98550.94;4961864;28;1061;-78
2023/10/17 04:16:34;;;;;;;;;;;;;;;20.84;29.42;98554.22;4961654;28;933;-78
2023/10/17 04:19:05;;;;;;;;;;;;;;;20.81;29.16;98558.69;4962028;28;896;-79
2023/10/17 04:21:32;;;;;;;;;;;;;;;20.75;29.60;98559.59;4961740;28;1228;-78
2023/10/17 04:24:07;;;;;;;;;;;;;;;20.73;29.66;98551.53;4960985;28;1989;-79
2023/10/17 04:26:44;;;;;;;;;;;;;;;20.70;29.40;98552.38;4978936;28;1042;-78
2023/10/17 04:29:17;;;;;;;;;;;;;;;21.00;28.96;98545.09;4981480;28;872;-79
2023/10/17 04:31:43;;;;;;;;;;;;;;;20.54;29.69;98553.00;4997193;28;876;-78
2023/10/17 04:34:14;;;;;;;;;;;;;;;20.84;29.34;98553.41;4980395;28;1126;-78
2023/10/17 04:36:40;;;;;;;;;;;;;;;20.94;29.02;98549.63;4949084;28;1062;-80
2023/10/17 04:39:18;;;;;;;;;;;;;;;20.91;28.93;98541.97;4958006;29;1001;-78
2023/10/17 04:44:21;;;;;;;;;;;;;;;20.81;28.97;98547.38;4951490;28;1092;-79
2023/10/17 04:47:16;;;;;;;;;;;;;;;20.71;29.45;98556.81;4973085;28;903;-78
2023/10/17 04:49:39;;;;;;;;;;;;;;;20.76;29.34;98555.53;4957611;29;954;-78
2023/10/17 04:52:08;;;;;;;;;;;;;;;20.60;29.19;98558.97;4973582;28;1124;-78
2023/10/17 04:57:04;;;;;;;;;;;;;;;21.14;28.77;98561.84;4993477;28;1059;-79
2023/10/17 05:08:05;;;;;;;;;;;;;;;20.85;29.63;98574.81;4976531;28;831;-79
2023/10/17 06:18:31;;;;;;;;;;;;;;;20.69;29.46;98613.00;5033925;28;955;-76
2023/10/17 06:34:23;;;;;;;;;;;;;;;21.16;28.71;98621.63;4995074;28;1010;-77
2023/10/17 06:36:58;;;;;;;;;;;;;;;21.26;28.24;98623.50;4994882;28;1377;-77
2023/10/17 06:39:25;;;;;;;;;;;;;;;21.24;28.16;98631.63;4978594;28;1024;-77
2023/10/17 06:42:13;;;;;;;;;;;;;;;21.14;28.28;98621.25;4994646;28;1242;-76
2023/10/17 06:44:51;;;;;;;;;;;;;;;20.95;28.58;98628.41;4994745;28;1238;-77
2023/10/17 06:47:17;;;;;;;;;;;;;;;20.73;29.16;98625.06;4965990;28;1117;-77
2023/10/17 06:54:50;;;;;;;;;;;;;;;20.41;29.63;98619.75;4955816;29;1039;-77
2023/10/17 06:57:33;;;;;;;;;;;;;;;20.38;29.73;98619.81;4942246;28;1215;-76
2023/10/17 07:00:15;;;;;;;;;;;;;;;20.48;29.65;98619.72;4926645;29;1148;-76
2023/10/17 07:02:48;;;;;;;;;;;;;;;20.65;29.34;98614.25;4926517;29;1906;-77
2023/10/17 07:05:22;;;;;;;;;;;;;;;20.79;29.18;98622.56;4940733;29;958;-77
2023/10/17 07:07:52;;;;;;;;;;;;;;;20.66;29.48;98622.31;4956148;28;902;-77
2023/10/17 07:10:37;;;;;;;;;;;;;;;20.64;29.33;98621.94;4995647;28;977;-77
2023/10/17 07:13:22;;;;;;;;;;;;;;;20.51;29.39;98618.06;5012068;28;898;-77
2023/10/17 07:15:52;;;;;;;;;;;;;;;20.66;29.22;98619.50;4999662;28;901;-76
2023/10/17 07:21:25;;;;;;;;;;;;;;;20.56;29.54;98628.91;4948686;29;1014;-76
2023/10/17 07:23:55;;;;;;;;;;;;;;;20.73;29.17;98618.63;4943572;29;1902;-77
2023/10/17 07:28:55;;;;;;;;;;;;;;;21.45;28.13;98613.53;4944535;29;899;-77
2023/10/17 07:31:24;;;;;;;;;;;;;;;21.51;28.22;98608.97;4943206;29;826;-77
2023/10/17 07:34:06;;;;;;;;;;;;;;;21.01;28.94;98611.75;4943425;29;1080;-77
2023/10/17 07:36:32;;;;;;;;;;;;;;;20.90;28.93;98611.09;4929760;29;1223;-77
2023/10/17 07:38:58;;;;;;;;;;;;;;;20.71;29.27;98616.19;4927018;29;1269;-78
2023/10/17 07:41:39;;;;;;;;;;;;;;;20.81;29.11;98609.59;4958900;29;850;-78
2023/10/17 07:47:19;;;;;;;;;;;;;;;20.56;29.32;98597.81;4908273;29;932;-77
2023/10/17 07:49:47;;;;;;;;;;;;;;;20.69;29.15;98607.34;4908110;29;1162;-77
2023/10/17 07:52:15;;;;;;;;;;;;;;;20.71;29.32;98609.72;4926345;29;936;-78
2023/10/17 07:54:45;;;;;;;;;;;;;;;20.60;29.38;98609.88;4943247;29;912;-78
2023/10/17 07:57:17;;;;;;;;;;;;;;;20.72;29.11;98617.78;4958539;29;1322;-79
2023/10/17 07:59:51;;;;;;;;;;;;;;;20.72;29.01;98605.69;4958794;29;1147;-78
2023/10/17 08:02:22;;;;;;;;;;;;;;;21.20;28.60;98608.22;4942644;29;1910;-78
2023/10/17 08:04:52;;;;;;;;;;;;;;;21.18;28.49;98599.34;4942655;29;1240;-79
2023/10/17 08:07:21;;;;;;;;;;;;;;;21.45;28.58;98598.56;4958447;29;835;-79
2023/10/17 08:09:51;;;;;;;;;;;;;;;21.01;29.01;98600.44;4942562;29;897;-79
2023/10/17 08:12:21;;;;;;;;;;;;;;;20.89;29.17;98606.69;4942354;29;900;-79
2023/10/17 08:14:50;;;;;;;;;;;;;;;20.96;28.91;98598.06;4942359;29;854;-79
2023/10/17 08:17:16;;;;;;;;;;;;;;;20.67;29.51;98587.16;4942368;29;914;-79
2023/10/17 08:20:38;;;;;;;;;;;;;;;20.66;29.33;98585.56;4958338;29;1120;-79
2023/10/17 08:22:58;;;;;;;;;;;;;;;20.62;29.69;98589.66;4962344;28;1915;-78
2023/10/17 08:25:30;;;;;;;;;;;;;;;20.44;29.96;98584.22;4997247;28;903;-78
2023/10/17 08:27:57;;;;;;;;;;;;;;;20.71;29.54;98593.56;4996088;28;1168;-79
2023/10/17 08:30:27;;;;;;;;;;;;;;;20.72;29.60;98591.53;4998084;28;944;-79
2023/10/17 08:33:11;;;;;;;;;;;;;;;20.72;29.53;98589.50;4999021;28;896;-79
2023/10/17 08:35:38;;;;;;;;;;;;;;;20.66;29.37;98591.22;5013982;28;901;-78
2023/10/17 08:38:07;;;;;;;;;;;;;;;20.68;29.50;98591.59;4997948;28;1206;-78
2023/10/17 08:40:40;;;;;;;;;;;;;;;20.71;29.49;98582.25;4997761;28;1139;-79
2023/10/17 08:43:06;;;;;;;;;;;;;;;20.67;29.14;98578.66;5014101;28;1910;-79
2023/10/17 08:45:38;;;;;;;;;;;;;;;20.37;29.96;98584.31;5018063;28;1114;-78
2023/10/17 08:48:06;;;;;;;;;;;;;;;20.56;29.37;98583.66;5017178;28;1260;-78
2023/10/17 08:50:37;;;;;;;;;;;;;;;20.22;30.22;98584.47;5035897;28;1739;-79
2023/10/17 08:53:06;;;;;;;;;;;;;;;21.05;29.07;98587.03;5019163;28;983;-79
2023/10/17 08:55:32;;;;;;;;;;;;;;;21.40;28.79;98587.72;5035729;28;960;-78
2023/10/17 08:57:59;;;;;;;;;;;;;;;21.54;28.48;98593.16;5018959;28;1113;-79
2023/10/17 09:03:31;;;;;;;;;;;;;;;21.01;29.40;98574.97;4976456;28;1968;-78
2023/10/17 09:11:14;;;;;;;;;;;;;;;20.77;29.40;98563.56;4957442;28;899;-79
2023/10/17 09:16:15;;;;;;;;;;;;;;;20.35;30.09;98555.66;4957538;29;1019;-78
2023/10/17 09:18:48;;;;;;;;;;;;;;;20.66;29.68;98559.31;4956972;28;983;-79
2023/10/17 09:21:14;;;;;;;;;;;;;;;20.57;29.54;98557.00;4934205;29;1222;-78
2023/10/17 09:23:41;;;;;;;;;;;;;;;20.84;29.33;98553.41;4922015;29;1903;-79
2023/10/17 09:26:07;;;;;;;;;;;;;;;20.58;29.61;98550.13;4938141;29;1152;-78
2023/10/17 09:28:33;;;;;;;;;;;;;;;20.59;29.75;98557.38;4922218;29;970;-78
2023/10/17 09:31:02;;;;;;;;;;;;;;;20.71;29.60;98553.97;4938585;29;832;-79
2023/10/17 09:33:31;;;;;;;;;;;;;;;20.70;29.20;98541.06;4922418;29;1471;-78
2023/10/17 09:35:58;;;;;;;;;;;;;;;20.59;29.43;98540.41;4937997;29;940;-79
2023/10/17 09:38:24;;;;;;;;;;;;;;;20.81;29.33;98547.38;4921963;29;1195;-78
2023/10/17 09:40:51;;;;;;;;;;;;;;;21.18;28.80;98544.78;4922610;29;1015;-79
2023/10/17 09:43:17;;;;;;;;;;;;;;;21.46;28.65;98535.84;4921647;29;1914;-78
2023/10/17 09:45:45;;;;;;;;;;;;;;;21.22;28.95;98529.34;4946488;29;934;-79
2023/10/17 09:48:10;;;;;;;;;;;;;;;20.85;29.63;98535.22;4956608;29;1012;-77
2023/10/17 09:50:39;;;;;;;;;;;;;;;20.70;29.46;98526.94;4995643;28;1231;-78
2023/10/17 09:53:14;;;;;;;;;;;;;;;20.97;28.94;98526.13;5000056;28;1081;-78
2023/10/17 09:55:44;;;;;;;;;;;;;;;20.67;29.70;98527.78;5015648;28;928;-77
2023/10/17 09:58:10;;;;;;;;;;;;;;;20.65;29.67;98533.06;5015927;28;1314;-78
2023/10/17 10:00:51;;;;;;;;;;;;;;;20.79;29.49;98534.88;4999621;28;775;-78
2023/10/17 10:03:17;;;;;;;;;;;;;;;20.67;29.55;98524.94;4999541;28;1902;-78
2023/10/17 10:05:42;;;;;;;;;;;;;;;20.50;29.91;98531.66;4999351;28;952;-79
2023/10/17 10:08:27;;;;;;;;;;;;;;;20.69;29.73;98519.69;4999452;28;837;-78
2023/10/17 10:10:52;;;;;;;;;;;;;;;21.30;28.81;98515.91;5015787;28;869;-78
2023/10/17 10:13:19;;;;;;;;;;;;;;;21.52;28.44;98513.50;5016464;28;847;-78
2023/10/17 10:16:02;;;;;;;;;;;;;;;21.30;28.84;98504.59;5017472;28;1414;-77
2023/10/17 10:18:38;;;;;;;;;;;;;;;20.98;29.03;98499.44;5019191;28;821;-77
2023/10/17 10:21:04;;;;;;;;;;;;;;;20.70;29.45;98503.50;4997890;28;921;-78
2023/10/17 10:23:34;;;;;;;;;;;;;;;20.47;29.97;98498.59;4997815;28;1973;-78
2023/10/17 10:26:11;;;;;;;;;;;;;;;20.72;29.49;98484.06;5014591;28;1042;-77
2023/10/17 10:28:37;;;;;;;;;;;;;;;20.67;29.44;98491.00;5014427;28;892;-78
2023/10/17 10:31:29;;;;;;;;;;;;;;;20.64;29.70;98491.09;4959363;28;1083;-78
2023/10/17 10:33:55;;;;;;;;;;;;;;;20.42;29.93;98479.25;4975350;28;855;-78
2023/10/17 10:36:23;;;;;;;;;;;;;;;20.47;30.00;98473.16;4943265;28;1236;-77
2023/10/17 10:38:49;;;;;;;;;;;;;;;20.54;29.94;98478.69;4959063;28;878;-78
2023/10/17 10:41:15;;;;;;;;;;;;;;;20.66;29.38;98475.28;4955577;28;914;-78
2023/10/17 10:43:44;;;;;;;;;;;;;;;20.68;29.42;98480.53;4939407;28;1903;-77
2023/10/17 10:46:10;;;;;;;;;;;;;;;20.40;30.00;98471.19;4955466;28;803;-77
2023/10/17 10:48:38;;;;;;;;;;;;;;;21.05;29.49;98471.03;4940030;28;1121;-77
2023/10/17 10:51:04;;;;;;;;;;;;;;;21.40;28.79;98477.31;4960947;28;910;-77
2023/10/17 10:53:31;;;;;;;;;;;;;;;21.38;28.82;98483.41;4959089;29;900;-77
2023/10/17 10:56:03;;;;;;;;;;;;;;;21.53;28.47;98469.78;4959401;29;858;-78
2023/10/17 10:58:30;;;;;;;;;;;;;;;20.83;29.48;98459.28;4959441;29;830;-77
2023/10/17 11:00:58;;;;;;;;;;;;;;;20.68;29.82;98458.69;4959438;28;873;-78
2023/10/17 11:03:24;;;;;;;;;;;;;;;20.48;29.91;98455.78;4959017;29;1902;-78
2023/10/17 11:05:53;;;;;;;;;;;;;;;20.63;29.69;98445.03;4959374;29;1200;-78
2023/10/17 11:08:22;;;;;;;;;;;;;;;20.53;29.79;98440.34;4967776;28;838;-78
2023/10/17 11:10:47;;;;;;;;;;;;;;;20.48;29.85;98426.69;4962801;28;1272;-77
2023/10/17 11:13:15;;;;;;;;;;;;;;;20.66;29.51;98432.88;4979621;28;928;-77
2023/10/17 11:15:46;;;;;;;;;;;;;;;20.62;29.65;98432.13;4982203;28;803;-78
2023/10/17 11:18:12;;;;;;;;;;;;;;;20.62;29.79;98436.97;4958840;29;968;-78
2023/10/17 11:20:41;;;;;;;;;;;;;;;20.47;30.03;98436.41;4943269;29;854;-77
2023/10/17 11:23:16;;;;;;;;;;;;;;;20.38;29.89;98434.09;4942708;29;1940;-77
2023/10/17 11:25:44;;;;;;;;;;;;;;;20.43;29.87;98429.97;4981712;28;744;-78
2023/10/17 11:28:09;;;;;;;;;;;;;;;21.24;29.25;98430.69;4981536;28;904;-78
2023/10/17 11:30:42;;;;;;;;;;;;;;;21.51;28.55;98438.31;4981512;28;1174;-77
2023/10/17 11:33:10;;;;;;;;;;;;;;;21.49;28.67;98420.94;4965549;28;919;-78
2023/10/17 11:35:49;;;;;;;;;;;;;;;21.31;28.95;98416.41;4981670;28;797;-78
2023/10/17 11:38:43;;;;;;;;;;;;;;;20.84;29.44;98409.97;4942375;29;1136;-78
2023/10/17 11:41:08;;;;;;;;;;;;;;;20.66;30.04;98415.91;4945407;29;795;-77
2023/10/17 11:43:42;;;;;;;;;;;;;;;20.56;29.81;98419.69;4942775;29;1902;-77
2023/10/17 11:46:12;;;;;;;;;;;;;;;20.49;30.16;98411.34;4943271;29;1351;-77
2023/10/17 11:48:43;;;;;;;;;;;;;;;20.60;29.94;98406.31;4951853;28;1037;-77
2023/10/17 11:51:18;;;;;;;;;;;;;;;20.57;29.98;98400.69;4997459;28;815;-77
2023/10/17 11:54:05;;;;;;;;;;;;;;;20.72;29.53;98408.53;4981162;28;908;-78
2023/10/17 11:56:31;;;;;;;;;;;;;;;20.52;29.93;98411.28;4964823;28;1178;-77
2023/10/17 11:58:57;;;;;;;;;;;;;;;20.35;30.07;98403.03;4980635;28;1144;-77
2023/10/17 12:01:23;;;;;;;;;;;;;;;20.39;30.00;98403.78;4995959;28;779;-77
2023/10/17 12:03:52;;;;;;;;;;;;;;;20.29;30.09;98403.53;4996798;28;2036;-77
2023/10/17 12:06:17;;;;;;;;;;;;;;;20.43;29.78;98413.81;4949119;28;1188;-77
2023/10/17 12:08:46;;;;;;;;;;;;;;;20.86;29.94;98395.38;4989192;28;1437;-77
2023/10/17 12:11:11;;;;;;;;;;;;;;;21.48;28.58;98396.69;5036101;28;781;-77
2023/10/17 12:13:37;;;;;;;;;;;;;;;21.47;28.56;98395.09;5019432;28;845;-78
2023/10/17 12:16:08;;;;;;;;;;;;;;;21.42;28.53;98387.09;5003675;28;1202;-78
2023/10/17 12:18:36;;;;;;;;;;;;;;;21.10;29.19;98405.47;5020256;28;806;-77
2023/10/17 12:21:04;;;;;;;;;;;;;;;20.62;30.05;98409.50;5019672;28;1082;-77
2023/10/17 12:23:32;;;;;;;;;;;;;;;20.72;29.56;98391.56;5004034;28;1975;-78
2023/10/17 12:25:58;;;;;;;;;;;;;;;20.84;29.42;98403.50;5021102;28;709;-77
2023/10/17 12:28:26;;;;;;;;;;;;;;;20.62;29.59;98389.72;5038278;28;794;-77
2023/10/17 12:30:52;;;;;;;;;;;;;;;20.77;29.32;98393.09;5005157;28;1141;-78
2023/10/17 12:33:22;;;;;;;;;;;;;;;20.66;29.56;98390.44;5020939;28;944;-78
2023/10/17 12:35:48;;;;;;;;;;;;;;;20.62;29.60;98391.72;5021641;28;979;-78
2023/10/17 12:38:24;;;;;;;;;;;;;;;20.77;29.51;98396.72;5021140;28;1055;-78
2023/10/17 12:40:50;;;;;;;;;;;;;;;20.79;29.48;98390.66;5006049;28;984;-78
2023/10/17 12:43:16;;;;;;;;;;;;;;;20.53;29.88;98389.47;5020564;28;1906;-77
2023/10/17 12:45:42;;;;;;;;;;;;;;;20.70;29.48;98382.72;5038116;28;1095;-78
2023/10/17 12:48:11;;;;;;;;;;;;;;;20.59;29.38;98386.97;5020698;28;1088;-78
2023/10/17 12:50:43;;;;;;;;;;;;;;;20.36;29.73;98384.84;5004149;28;1360;-78
2023/10/17 12:53:15;;;;;;;;;;;;;;;20.93;29.36;98378.28;5020341;28;1223;-78
2023/10/17 12:55:43;;;;;;;;;;;;;;;21.44;28.37;98379.75;5020473;28;855;-78
2023/10/17 12:58:10;;;;;;;;;;;;;;;21.61;28.27;98369.31;5021361;28;945;-78
2023/10/17 13:00:40;;;;;;;;;;;;;;;21.20;28.89;98373.34;5020306;28;946;-78
2023/10/17 13:03:08;;;;;;;;;;;;;;;20.67;29.97;98372.25;5003922;28;1911;-78
2023/10/17 13:05:34;;;;;;;;;;;;;;;20.71;29.54;98367.34;4995974;28;991;-78
2023/10/17 13:07:59;;;;;;;;;;;;;;;20.93;29.07;98364.94;4996794;28;1033;-77
2023/10/17 13:10:26;;;;;;;;;;;;;;;20.71;29.70;98377.84;4960252;28;1298;-77
2023/10/17 13:12:52;;;;;;;;;;;;;;;20.59;29.82;98367.16;4944568;28;1478;-78
2023/10/17 13:15:17;;;;;;;;;;;;;;;20.57;29.91;98359.09;4960841;28;944;-78
2023/10/17 13:17:43;;;;;;;;;;;;;;;20.48;29.69;98359.66;4976733;28;961;-78
2023/10/17 13:20:10;;;;;;;;;;;;;;;20.61;29.60;98351.34;4944989;28;903;-78
2023/10/17 13:22:49;;;;;;;;;;;;;;;20.40;29.94;98340.38;4940883;29;1964;-77
2023/10/17 13:25:18;;;;;;;;;;;;;;;21.05;29.41;98352.19;4957206;28;1024;-78
2023/10/17 13:27:43;;;;;;;;;;;;;;;21.47;28.61;98341.31;4957115;29;1072;-78
2023/10/17 13:30:09;;;;;;;;;;;;;;;21.44;28.63;98350.66;4957027;29;1022;-78
2023/10/17 13:32:35;;;;;;;;;;;;;;;21.07;29.13;98344.06;4925228;29;1112;-78
2023/10/17 13:35:00;;;;;;;;;;;;;;;20.61;29.64;98351.34;4957015;28;1258;-78
2023/10/17 13:37:29;;;;;;;;;;;;;;;20.48;29.79;98347.56;4954427;29;1056;-78
2023/10/17 13:39:54;;;;;;;;;;;;;;;20.38;29.90;98338.00;4956785;29;984;-78
2023/10/17 13:42:20;;;;;;;;;;;;;;;20.70;29.53;98337.47;4960165;28;1902;-78
2023/10/17 13:44:46;;;;;;;;;;;;;;;20.52;29.76;98336.97;4960061;28;1296;-78
2023/10/17 13:47:11;;;;;;;;;;;;;;;20.53;29.67;98332.94;4960058;28;914;-78
2023/10/17 13:49:38;;;;;;;;;;;;;;;20.64;29.54;98333.53;4959897;28;947;-78
2023/10/17 13:52:04;;;;;;;;;;;;;;;20.52;29.73;98331.31;4960293;28;912;-78
2023/10/17 13:54:37;;;;;;;;;;;;;;;20.61;29.86;98331.56;4960094;28;920;-78
2023/10/17 13:57:06;;;;;;;;;;;;;;;20.61;29.58;98334.41;4960555;28;1131;-78
2023/10/17 13:59:46;;;;;;;;;;;;;;;20.41;29.85;98337.13;4950362;28;1282;-78
2023/10/17 14:02:15;;;;;;;;;;;;;;;20.89;29.60;98340.78;4995683;28;813;-77
2023/10/17 14:04:41;;;;;;;;;;;;;;;21.29;28.71;98328.25;4979517;28;786;-78
2023/10/17 14:07:06;;;;;;;;;;;;;;;21.63;28.43;98330.03;4994921;28;1030;-78
2023/10/17 14:09:32;;;;;;;;;;;;;;;21.52;28.19;98341.59;4978698;28;1231;-78
2023/10/17 14:12:02;;;;;;;;;;;;;;;20.97;29.01;98339.41;4978499;28;1297;-78
2023/10/17 14:14:30;;;;;;;;;;;;;;;20.70;29.53;98360.09;4989898;28;923;-78
2023/10/17 14:16:58;;;;;;;;;;;;;;;20.63;29.77;98348.13;4979333;28;1135;-78
2023/10/17 14:30:11;;;;;;;;;;;;;;;20.34;30.08;98333.63;4920952;29;1251;-78
2023/10/17 14:32:37;;;;;;;;;;;;;;;20.55;29.54;98338.94;4937044;29;1258;-78
2023/10/17 14:35:04;;;;;;;;;;;;;;;20.51;29.61;98346.69;4936463;29;1032;-78
2023/10/17 14:37:30;;;;;;;;;;;;;;;20.49;29.68;98351.97;4921351;29;964;-78
2023/10/17 14:39:56;;;;;;;;;;;;;;;20.58;29.57;98352.25;4936626;29;1002;-78
2023/10/17 14:42:21;;;;;;;;;;;;;;;20.65;29.45;98343.63;4936975;29;1992;-78
2023/10/17 14:44:49;;;;;;;;;;;;;;;21.23;28.73;98335.66;4937012;29;1076;-78
2023/10/17 14:47:17;;;;;;;;;;;;;;;21.31;28.89;98345.66;4936615;29;1227;-78
2023/10/17 14:49:42;;;;;;;;;;;;;;;21.44;28.31;98334.47;4936457;29;929;-78
2023/10/17 14:52:08;;;;;;;;;;;;;;;20.98;29.25;98341.00;4936719;29;910;-78
2023/10/17 14:54:35;;;;;;;;;;;;;;;20.61;29.53;98340.06;4950591;28;982;-77
2023/10/17 14:57:06;;;;;;;;;;;;;;;20.63;29.57;98331.16;4958812;28;1284;-77
2023/10/17 14:59:41;;;;;;;;;;;;;;;20.33;30.09;98335.66;4958773;28;1258;-78
2023/10/17 15:02:07;;;;;;;;;;;;;;;20.59;29.56;98342.53;4959163;28;1225;-78
2023/10/17 15:04:35;;;;;;;;;;;;;;;20.52;29.73;98339.78;4959249;28;1910;-77
2023/10/17 15:07:00;;;;;;;;;;;;;;;20.62;29.64;98335.97;4983028;28;1007;-78
2023/10/17 15:09:26;;;;;;;;;;;;;;;20.68;29.59;98328.63;4984789;28;1137;-78
2023/10/17 15:11:53;;;;;;;;;;;;;;;20.68;29.53;98317.31;5001186;28;946;-78
2023/10/17 15:14:20;;;;;;;;;;;;;;;20.39;29.85;98333.13;5001380;28;1290;-78
2023/10/17 15:16:46;;;;;;;;;;;;;;;20.98;29.34;98335.34;4985147;28;1159;-78
2023/10/17 15:19:11;;;;;;;;;;;;;;;21.32;28.63;98332.31;5017244;28;881;-78
2023/10/17 15:21:37;;;;;;;;;;;;;;;21.30;28.72;98341.22;4984527;28;994;-78
2023/10/17 15:24:02;;;;;;;;;;;;;;;21.22;28.79;98344.59;5000791;28;1985;-78
2023/10/17 15:26:28;;;;;;;;;;;;;;;20.94;29.05;98338.25;5001401;28;1049;-78
2023/10/17 15:28:54;;;;;;;;;;;;;;;20.89;29.29;98343.63;5013859;28;1033;-78
2023/10/17 15:31:20;;;;;;;;;;;;;;;20.55;29.83;98342.56;4981520;28;889;-78
2023/10/17 15:33:46;;;;;;;;;;;;;;;20.42;29.87;98340.78;5014075;28;1293;-78
2023/10/17 15:36:12;;;;;;;;;;;;;;;20.50;29.58;98339.44;4983314;28;1028;-78
2023/10/17 15:38:40;;;;;;;;;;;;;;;20.35;29.83;98343.69;4968899;28;1238;-77
2023/10/17 15:41:06;;;;;;;;;;;;;;;20.64;29.45;98332.75;4962306;28;1083;-78